Time;durP1;ratioP1;P1;durP2;ratioP2;P2;SDS_P1;SDS_P2;PMS_P1;PMS_P2;Temp;Humidity;BMP_temperature;BMP_pressure;BME280_temperature;BME280_humidity;BME280_pressure;Samples;Min_cycle;Max_cycle;Signal;HPM_P1;HPM_P2
2021/12/29 00:00:49;;;;;;;47.73;20.87;;;;;;;;;;5039054;28;20476;-82
2021/12/29 00:03:16;;;;;;;33.40;20.87;;;;;;;;;;5040459;28;20531;-81
2021/12/29 00:05:42;;;;;;;34.93;20.30;;;;;;;;;;5039011;28;20448;-81
2021/12/29 00:08:09;;;;;;;33.60;19.60;;;;;;;;;;5040292;28;20468;-82
2021/12/29 00:10:36;;;;;;;33.37;20.77;;;;;;;;;;5040276;28;20507;-82
2021/12/29 00:13:04;;;;;;;46.43;22.00;;;;;;;;;;5036460;28;20484;-81
2021/12/29 00:15:31;;;;;;;39.20;20.70;;;;;;;;;;5037198;28;20460;-83
2021/12/29 00:17:58;;;;;;;39.97;21.37;;;;;;;;;;5038813;28;20472;-81
2021/12/29 00:20:28;;;;;;;44.13;21.97;;;;;;;;;;5037677;28;20485;-84
2021/12/29 00:22:54;;;;;;;44.77;21.93;;;;;;;;;;5039942;28;21010;-83
2021/12/29 00:25:20;;;;;;;49.40;22.33;;;;;;;;;;5039934;28;20453;-82
2021/12/29 00:27:47;;;;;;;36.53;19.83;;;;;;;;;;5039309;28;20926;-83
2021/12/29 00:30:15;;;;;;;52.90;21.30;;;;;;;;;;5039047;28;20444;-83
2021/12/29 00:32:42;;;;;;;39.00;19.60;;;;;;;;;;5038504;28;20602;-82
2021/12/29 00:35:11;;;;;;;45.20;23.00;;;;;;;;;;5038037;28;20456;-83
2021/12/29 00:37:38;;;;;;;47.87;22.80;;;;;;;;;;5037616;28;21021;-82
2021/12/29 00:40:04;;;;;;;50.47;23.43;;;;;;;;;;5038584;28;20484;-82
2021/12/29 00:42:30;;;;;;;45.57;21.27;;;;;;;;;;5038043;28;20493;-82
2021/12/29 00:44:57;;;;;;;41.30;21.27;;;;;;;;;;5037597;28;20465;-83
2021/12/29 00:47:29;;;;;;;54.83;21.87;;;;;;;;;;5039073;28;20475;-83
2021/12/29 00:49:55;;;;;;;52.47;24.10;;;;;;;;;;5038943;28;20455;-82
2021/12/29 00:52:21;;;;;;;38.70;21.30;;;;;;;;;;5034319;28;20472;-81
2021/12/29 00:54:49;;;;;;;43.20;21.00;;;;;;;;;;5037703;28;20468;-80
2021/12/29 00:57:15;;;;;;;41.60;24.07;;;;;;;;;;5039214;28;20512;-82
2021/12/29 00:59:41;;;;;;;53.03;21.80;;;;;;;;;;5038005;28;20465;-82
2021/12/29 01:02:07;;;;;;;34.40;21.37;;;;;;;;;;5039705;28;20483;-83
2021/12/29 01:04:35;;;;;;;37.93;21.67;;;;;;;;;;5040396;28;20487;-83
2021/12/29 01:07:01;;;;;;;49.57;22.60;;;;;;;;;;5038033;28;20480;-81
2021/12/29 01:09:28;;;;;;;41.73;21.67;;;;;;;;;;5035694;28;20461;-82
2021/12/29 01:11:56;;;;;;;44.77;22.13;;;;;;;;;;5034835;28;21008;-83
2021/12/29 01:14:24;;;;;;;42.13;22.40;;;;;;;;;;5039766;28;20457;-83
2021/12/29 01:16:51;;;;;;;52.57;23.07;;;;;;;;;;5038104;28;20477;-83
2021/12/29 01:19:18;;;;;;;51.47;24.33;;;;;;;;;;5039453;28;20513;-80
2021/12/29 01:21:49;;;;;;;46.70;24.60;;;;;;;;;;5037704;28;20472;-82
2021/12/29 01:24:15;;;;;;;49.97;25.43;;;;;;;;;;5034669;28;20529;-81
2021/12/29 01:26:43;;;;;;;42.70;23.87;;;;;;;;;;5034472;28;20499;-82
2021/12/29 01:31:47;;;;;;;37.90;23.37;;;;;;;;;;5078802;22;20495;-82
2021/12/29 01:34:13;;;;;;;41.33;23.43;;;;;;;;;;5049552;28;20484;-81
2021/12/29 01:36:40;;;;;;;47.47;24.37;;;;;;;;;;5048545;28;20485;-81
2021/12/29 01:39:09;;;;;;;47.10;24.50;;;;;;;;;;5045527;28;20460;-82
2021/12/29 01:41:36;;;;;;;51.97;25.27;;;;;;;;;;5064829;28;20474;-81
2021/12/29 01:44:03;;;;;;;49.50;22.83;;;;;;;;;;5064204;28;20521;-82
2021/12/29 01:46:29;;;;;;;38.80;23.03;;;;;;;;;;5065718;28;20521;-81
2021/12/29 01:48:56;;;;;;;43.60;24.23;;;;;;;;;;5064442;28;20525;-80
2021/12/29 01:51:22;;;;;;;41.73;21.47;;;;;;;;;;5064016;28;20821;-80
2021/12/29 01:54:01;;;;;;;49.43;23.10;;;;;;;;;;5064740;28;20466;-81
2021/12/29 01:56:29;;;;;;;40.33;22.63;;;;;;;;;;5063339;28;20491;-82
2021/12/29 01:58:55;;;;;;;49.70;22.73;;;;;;;;;;5065095;28;20455;-82
2021/12/29 02:01:21;;;;;;;41.57;22.30;;;;;;;;;;5065399;28;20536;-81
2021/12/29 02:03:48;;;;;;;44.77;23.70;;;;;;;;;;5066724;28;20522;-81
2021/12/29 02:06:14;;;;;;;45.00;24.83;;;;;;;;;;5068161;28;20551;-81
2021/12/29 02:08:40;;;;;;;41.37;23.67;;;;;;;;;;5067605;28;20439;-81
2021/12/29 02:11:07;;;;;;;43.97;23.10;;;;;;;;;;5068799;28;20490;-82
2021/12/29 02:13:35;;;;;;;45.40;24.80;;;;;;;;;;5068003;28;20550;-81
2021/12/29 02:16:01;;;;;;;48.67;20.97;;;;;;;;;;5069224;28;20474;-81
2021/12/29 02:18:27;;;;;;;50.87;23.67;;;;;;;;;;5069738;28;20448;-81
2021/12/29 02:20:55;;;;;;;71.20;28.03;;;;;;;;;;5066271;28;20578;-81
2021/12/29 02:23:29;;;;;;;59.53;25.80;;;;;;;;;;5070078;28;20447;-81
2021/12/29 02:25:56;;;;;;;78.27;27.80;;;;;;;;;;5070383;28;20505;-81
2021/12/29 02:28:24;;;;;;;54.93;24.67;;;;;;;;;;5068980;28;20454;-81
2021/12/29 02:30:51;;;;;;;54.77;23.47;;;;;;;;;;5068138;28;20487;-80
2021/12/29 02:33:18;;;;;;;61.87;25.17;;;;;;;;;;5070742;28;20466;-81
2021/12/29 02:35:44;;;;;;;53.53;27.10;;;;;;;;;;5069718;28;20493;-81
2021/12/29 02:38:18;;;;;;;71.07;27.33;;;;;;;;;;5069105;28;20541;-81
2021/12/29 02:40:45;;;;;;;54.10;26.20;;;;;;;;;;5066286;28;20491;-80
2021/12/29 02:43:15;;;;;;;56.43;25.60;;;;;;;;;;5069835;28;20494;-81
2021/12/29 02:45:41;;;;;;;60.77;27.30;;;;;;;;;;5070437;28;20453;-81
2021/12/29 02:48:07;;;;;;;68.00;28.57;;;;;;;;;;5069668;28;20502;-82
2021/12/29 02:50:34;;;;;;;61.87;27.00;;;;;;;;;;5065361;28;20529;-81
2021/12/29 02:53:01;;;;;;;73.20;28.70;;;;;;;;;;5069037;28;20491;-81
2021/12/29 02:55:28;;;;;;;54.33;27.60;;;;;;;;;;5067700;28;20463;-82
2021/12/29 02:57:54;;;;;;;52.83;25.73;;;;;;;;;;5069175;28;20475;-81
2021/12/29 03:00:21;;;;;;;74.57;29.60;;;;;;;;;;5066627;28;20491;-82
2021/12/29 03:02:47;;;;;;;114.13;32.10;;;;;;;;;;5069642;28;20475;-81
2021/12/29 03:05:14;;;;;;;68.93;30.63;;;;;;;;;;5068989;28;20450;-81
2021/12/29 03:07:40;;;;;;;67.57;27.20;;;;;;;;;;5068783;28;20459;-81
2021/12/29 03:10:06;;;;;;;64.37;31.03;;;;;;;;;;5068321;28;20464;-79
2021/12/29 03:12:34;;;;;;;66.03;30.03;;;;;;;;;;5071273;28;20483;-81
2021/12/29 03:15:00;;;;;;;90.27;30.47;;;;;;;;;;5065781;28;20486;-81
2021/12/29 03:17:27;;;;;;;82.37;30.90;;;;;;;;;;5065596;28;20471;-81
2021/12/29 03:19:53;;;;;;;119.57;33.90;;;;;;;;;;5067267;28;20512;-81
2021/12/29 03:22:19;;;;;;;93.37;31.30;;;;;;;;;;5067027;28;20480;-81
2021/12/29 03:24:46;;;;;;;93.87;32.27;;;;;;;;;;5070563;28;20463;-81
2021/12/29 03:27:12;;;;;;;61.60;28.70;;;;;;;;;;5067711;28;20511;-80
2021/12/29 03:29:39;;;;;;;60.23;28.17;;;;;;;;;;5068478;28;20472;-82
2021/12/29 03:32:09;;;;;;;60.83;29.27;;;;;;;;;;5066702;28;20517;-80
2021/12/29 03:34:35;;;;;;;84.17;29.50;;;;;;;;;;5068692;28;21584;-81
2021/12/29 03:37:01;;;;;;;66.67;29.03;;;;;;;;;;5068711;28;20528;-81
2021/12/29 03:39:29;;;;;;;64.67;29.20;;;;;;;;;;5070437;28;20447;-80
2021/12/29 03:41:55;;;;;;;74.37;29.50;;;;;;;;;;5066449;28;20953;-82
2021/12/29 03:44:21;;;;;;;72.13;29.13;;;;;;;;;;5068561;28;20583;-81
2021/12/29 03:46:49;;;;;;;53.57;26.73;;;;;;;;;;5064497;28;20498;-82
2021/12/29 03:49:15;;;;;;;52.67;27.63;;;;;;;;;;5067328;28;20454;-81
2021/12/29 03:51:41;;;;;;;59.60;27.10;;;;;;;;;;5068474;28;21081;-82
2021/12/29 03:54:08;;;;;;;55.20;26.80;;;;;;;;;;5068289;28;20471;-82
2021/12/29 03:56:34;;;;;;;68.20;30.50;;;;;;;;;;5069048;28;20534;-81
2021/12/29 03:59:00;;;;;;;53.70;26.13;;;;;;;;;;5065726;28;20478;-81
2021/12/29 04:01:26;;;;;;;77.47;26.00;;;;;;;;;;5065912;28;20492;-82
2021/12/29 04:03:54;;;;;;;51.43;24.70;;;;;;;;;;5066707;28;20455;-81
2021/12/29 04:06:21;;;;;;;58.93;29.00;;;;;;;;;;5068833;28;20471;-82
2021/12/29 04:08:48;;;;;;;56.93;28.70;;;;;;;;;;5068887;28;20451;-81
2021/12/29 04:11:14;;;;;;;51.83;27.83;;;;;;;;;;5067880;28;20479;-81
2021/12/29 04:13:40;;;;;;;53.50;26.57;;;;;;;;;;5066730;28;20460;-81
2021/12/29 04:16:12;;;;;;;51.03;26.20;;;;;;;;;;5066660;28;20482;-82
2021/12/29 04:18:45;;;;;;;50.20;26.97;;;;;;;;;;5063559;28;20463;-81
2021/12/29 04:21:13;;;;;;;63.03;28.30;;;;;;;;;;5069161;28;20468;-81
2021/12/29 04:23:39;;;;;;;72.10;29.47;;;;;;;;;;5065675;28;20505;-82
2021/12/29 04:26:08;;;;;;;70.40;29.40;;;;;;;;;;5067399;28;20451;-81
2021/12/29 04:28:34;;;;;;;62.33;29.63;;;;;;;;;;5066599;28;20463;-80
2021/12/29 04:31:02;;;;;;;62.63;30.17;;;;;;;;;;5065946;28;20521;-81
2021/12/29 04:33:29;;;;;;;62.13;30.17;;;;;;;;;;5068448;28;20453;-81
2021/12/29 04:35:55;;;;;;;58.67;29.00;;;;;;;;;;5067537;28;20527;-81
2021/12/29 04:38:24;;;;;;;62.30;29.17;;;;;;;;;;5069086;28;20452;-81
2021/12/29 04:40:51;;;;;;;72.80;31.53;;;;;;;;;;5068424;28;20468;-81
2021/12/29 04:43:17;;;;;;;74.23;31.33;;;;;;;;;;5065026;28;20464;-81
2021/12/29 04:45:44;;;;;;;69.43;28.87;;;;;;;;;;5068501;28;20454;-81
2021/12/29 04:48:13;;;;;;;69.60;29.40;;;;;;;;;;5066683;28;20540;-81
2021/12/29 04:50:40;;;;;;;75.50;30.50;;;;;;;;;;5065004;28;20492;-82
2021/12/29 04:53:08;;;;;;;81.00;30.87;;;;;;;;;;5067709;28;20479;-82
2021/12/29 04:55:36;;;;;;;64.33;30.23;;;;;;;;;;5067294;28;20480;-79
2021/12/29 04:58:02;;;;;;;73.60;30.17;;;;;;;;;;5059314;28;20483;-76
2021/12/29 05:00:30;;;;;;;99.97;36.97;;;;;;;;;;5056554;28;21000;-79
2021/12/29 05:02:57;;;;;;;75.97;31.90;;;;;;;;;;5056727;28;20483;-79
2021/12/29 05:05:39;;;;;;;56.93;29.50;;;;;;;;;;5060628;28;20478;-79
2021/12/29 05:10:51;;;;;;;149.37;41.63;;;;;;;;;;5059099;28;21010;-79
2021/12/29 05:13:18;;;;;;;147.63;38.13;;;;;;;;;;5055579;28;20468;-79
2021/12/29 05:15:44;;;;;;;173.03;42.47;;;;;;;;;;5057234;28;20509;-79
2021/12/29 05:18:10;;;;;;;106.93;34.00;;;;;;;;;;5058295;28;20476;-79
2021/12/29 05:20:37;;;;;;;99.27;34.57;;;;;;;;;;5058820;28;21007;-79
2021/12/29 05:23:03;;;;;;;171.03;39.87;;;;;;;;;;5056998;28;20487;-79
2021/12/29 05:25:29;;;;;;;78.23;28.33;;;;;;;;;;5059281;28;20521;-79
2021/12/29 05:27:57;;;;;;;107.13;34.43;;;;;;;;;;5057687;28;20898;-79
2021/12/29 05:30:24;;;;;;;136.03;37.93;;;;;;;;;;5055973;28;20491;-80
2021/12/29 05:32:50;;;;;;;161.83;38.27;;;;;;;;;;5059169;28;20896;-79
2021/12/29 05:35:17;;;;;;;86.47;29.53;;;;;;;;;;5060664;28;21637;-76
2021/12/29 05:37:43;;;;;;;85.50;30.83;;;;;;;;;;5059712;28;21052;-79
2021/12/29 05:40:10;;;;;;;236.27;48.10;;;;;;;;;;5063189;28;20467;-79
2021/12/29 05:42:37;;;;;;;117.50;30.47;;;;;;;;;;5064144;28;20900;-79
2021/12/29 05:45:06;;;;;;;80.03;26.73;;;;;;;;;;5062919;28;20521;-78
2021/12/29 05:47:32;;;;;;;89.87;30.43;;;;;;;;;;5063150;28;20475;-79
2021/12/29 05:49:58;;;;;;;143.23;34.47;;;;;;;;;;5064266;28;20895;-78
2021/12/29 05:52:25;;;;;;;94.90;30.13;;;;;;;;;;5063633;28;20486;-79
2021/12/29 05:54:51;;;;;;;165.03;36.53;;;;;;;;;;5061012;28;20463;-79
2021/12/29 05:57:17;;;;;;;94.77;28.00;;;;;;;;;;5063096;28;20467;-79
2021/12/29 05:59:44;;;;;;;83.40;27.50;;;;;;;;;;5063946;28;21058;-79
2021/12/29 06:02:11;;;;;;;147.00;32.33;;;;;;;;;;5062660;28;20536;-78
2021/12/29 06:04:38;;;;;;;79.33;25.37;;;;;;;;;;5059973;28;20592;-78
2021/12/29 06:07:04;;;;;;;96.03;28.60;;;;;;;;;;5061182;28;20899;-79
2021/12/29 06:09:30;;;;;;;101.17;29.50;;;;;;;;;;5061488;28;20806;-78
2021/12/29 06:11:57;;;;;;;213.70;39.50;;;;;;;;;;5060705;28;20479;-79
2021/12/29 06:14:23;;;;;;;173.87;33.87;;;;;;;;;;5064037;28;20446;-78
2021/12/29 06:16:49;;;;;;;99.10;29.90;;;;;;;;;;5060491;28;20478;-80
2021/12/29 06:19:17;;;;;;;67.60;25.33;;;;;;;;;;5061132;28;21002;-78
2021/12/29 06:21:43;;;;;;;85.40;27.20;;;;;;;;;;5059222;28;21107;-77
2021/12/29 06:24:10;;;;;;;256.07;40.77;;;;;;;;;;5061005;28;20858;-78
2021/12/29 06:26:37;;;;;;;171.17;31.83;;;;;;;;;;5059584;28;20507;-79
2021/12/29 06:29:03;;;;;;;70.47;26.00;;;;;;;;;;5060839;28;20486;-78
2021/12/29 06:31:29;;;;;;;272.47;47.33;;;;;;;;;;5062915;28;20900;-81
2021/12/29 06:33:56;;;;;;;233.53;40.47;;;;;;;;;;5063475;28;20470;-77
2021/12/29 06:36:23;;;;;;;132.23;34.27;;;;;;;;;;5061105;28;20470;-79
2021/12/29 06:38:49;;;;;;;115.23;30.77;;;;;;;;;;5061235;28;20459;-79
2021/12/29 06:41:16;;;;;;;118.60;33.13;;;;;;;;;;5059910;28;20472;-79
2021/12/29 06:43:42;;;;;;;64.77;24.80;;;;;;;;;;5061602;28;20481;-76
2021/12/29 06:46:08;;;;;;;70.17;24.80;;;;;;;;;;5059067;28;21509;-80
2021/12/29 06:48:35;;;;;;;75.27;27.80;;;;;;;;;;5060192;28;20459;-79
2021/12/29 06:51:01;;;;;;;59.83;24.90;;;;;;;;;;5052827;28;20479;-77
2021/12/29 06:53:31;;;;;;;58.77;25.00;;;;;;;;;;5061660;28;20481;-79
2021/12/29 06:55:57;;;;;;;85.07;26.53;;;;;;;;;;5056442;28;20562;-78
2021/12/29 06:58:23;;;;;;;68.50;24.57;;;;;;;;;;5058893;28;20512;-79
2021/12/29 07:00:50;;;;;;;50.03;24.33;;;;;;;;;;5059266;28;20529;-79
2021/12/29 07:03:16;;;;;;;141.53;32.53;;;;;;;;;;5061443;28;21080;-80
2021/12/29 07:05:42;;;;;;;59.83;25.20;;;;;;;;;;5058528;28;21029;-79
2021/12/29 07:08:08;;;;;;;95.40;27.80;;;;;;;;;;5056319;28;20475;-79
2021/12/29 07:10:36;;;;;;;53.83;21.97;;;;;;;;;;5058866;28;20470;-79
2021/12/29 07:13:02;;;;;;;55.43;23.40;;;;;;;;;;5061150;28;20483;-79
2021/12/29 07:15:29;;;;;;;52.03;23.63;;;;;;;;;;5060479;28;20509;-80
2021/12/29 07:17:55;;;;;;;57.80;22.23;;;;;;;;;;5060075;28;20499;-79
2021/12/29 07:20:21;;;;;;;95.10;28.63;;;;;;;;;;5060203;28;20529;-80
2021/12/29 07:22:47;;;;;;;47.93;22.13;;;;;;;;;;5059848;28;20463;-79
2021/12/29 07:25:13;;;;;;;48.63;22.33;;;;;;;;;;5060372;28;20468;-79
2021/12/29 07:27:41;;;;;;;46.93;21.93;;;;;;;;;;5058712;28;20479;-79
2021/12/29 07:30:08;;;;;;;45.07;21.33;;;;;;;;;;5059027;28;20476;-80
2021/12/29 07:32:34;;;;;;;56.33;24.17;;;;;;;;;;5059657;28;20464;-79
2021/12/29 07:35:00;;;;;;;39.67;19.20;;;;;;;;;;5060216;28;20444;-79
2021/12/29 07:37:27;;;;;;;52.60;22.97;;;;;;;;;;5059669;28;20504;-79
2021/12/29 07:39:53;;;;;;;47.60;20.57;;;;;;;;;;5059797;28;20482;-79
2021/12/29 07:42:19;;;;;;;39.00;20.27;;;;;;;;;;5055308;28;20475;-79
2021/12/29 07:44:49;;;;;;;54.23;20.97;;;;;;;;;;5061374;28;20448;-79
2021/12/29 07:47:15;;;;;;;55.23;19.47;;;;;;;;;;5057733;28;20479;-79
2021/12/29 07:49:42;;;;;;;62.33;21.33;;;;;;;;;;5060285;28;20526;-79
2021/12/29 07:52:08;;;;;;;46.87;20.40;;;;;;;;;;5057811;28;21002;-79
2021/12/29 07:54:34;;;;;;;63.83;21.00;;;;;;;;;;5060630;28;20448;-79
2021/12/29 07:57:01;;;;;;;42.83;19.97;;;;;;;;;;5057713;28;20479;-80
2021/12/29 07:59:27;;;;;;;35.83;17.90;;;;;;;;;;5058218;28;20456;-79
2021/12/29 08:01:55;;;;;;;44.73;19.90;;;;;;;;;;5055593;28;21149;-80
2021/12/29 08:04:21;;;;;;;45.00;19.47;;;;;;;;;;5057791;28;20455;-80
2021/12/29 08:06:48;;;;;;;42.90;18.43;;;;;;;;;;5056406;28;20832;-79
2021/12/29 08:09:14;;;;;;;45.93;20.17;;;;;;;;;;5054536;28;20464;-79
2021/12/29 08:11:41;;;;;;;173.37;35.67;;;;;;;;;;5059089;28;20479;-79
2021/12/29 08:14:10;;;;;;;69.40;22.40;;;;;;;;;;5058765;28;20474;-78
2021/12/29 08:16:37;;;;;;;249.40;39.50;;;;;;;;;;5056981;28;20559;-79
2021/12/29 08:19:05;;;;;;;131.17;30.43;;;;;;;;;;5057915;28;20456;-79
2021/12/29 08:21:31;;;;;;;96.70;24.07;;;;;;;;;;5056265;28;20537;-79
2021/12/29 08:23:58;;;;;;;84.93;25.00;;;;;;;;;;5057124;28;20490;-79
2021/12/29 08:26:24;;;;;;;170.60;33.23;;;;;;;;;;5054420;28;21058;-79
2021/12/29 08:28:51;;;;;;;75.03;22.50;;;;;;;;;;5057734;28;20533;-79
2021/12/29 08:31:17;;;;;;;55.70;20.10;;;;;;;;;;5056252;28;20546;-80
2021/12/29 08:33:44;;;;;;;130.43;25.43;;;;;;;;;;5053769;28;20871;-79
2021/12/29 08:36:11;;;;;;;122.47;27.50;;;;;;;;;;5054528;28;20455;-81
2021/12/29 08:38:38;;;;;;;136.70;28.90;;;;;;;;;;5056652;28;20460;-79
2021/12/29 08:41:04;;;;;;;115.27;27.90;;;;;;;;;;5055425;28;20932;-79
2021/12/29 08:43:31;;;;;;;59.17;20.40;;;;;;;;;;5056242;28;20488;-80
2021/12/29 08:45:58;;;;;;;80.57;23.10;;;;;;;;;;5055906;28;20546;-80
2021/12/29 08:48:25;;;;;;;66.70;21.97;;;;;;;;;;5054072;28;20987;-80
2021/12/29 08:50:51;;;;;;;79.17;23.50;;;;;;;;;;5054657;28;21013;-80
2021/12/29 08:53:19;;;;;;;122.87;28.80;;;;;;;;;;5055614;28;20472;-79
2021/12/29 08:55:48;;;;;;;238.10;36.10;;;;;;;;;;5053538;28;20524;-79
2021/12/29 08:58:14;;;;;;;157.27;29.33;;;;;;;;;;5057563;28;20579;-81
2021/12/29 09:00:41;;;;;;;107.00;22.87;;;;;;;;;;5056850;28;20502;-80
2021/12/29 09:03:07;;;;;;;218.03;36.20;;;;;;;;;;5057690;28;20472;-79
2021/12/29 09:05:33;;;;;;;122.80;25.93;;;;;;;;;;5055036;28;20542;-79
2021/12/29 09:08:00;;;;;;;137.87;25.90;;;;;;;;;;5057115;28;20468;-77
2021/12/29 09:10:27;;;;;;;78.27;22.00;;;;;;;;;;5057459;28;20613;-76
2021/12/29 09:12:54;;;;;;;203.27;36.33;;;;;;;;;;5056369;28;21085;-80
2021/12/29 09:15:20;;;;;;;76.63;21.97;;;;;;;;;;5054993;28;20457;-79
2021/12/29 09:17:47;;;;;;;80.43;22.43;;;;;;;;;;5056808;28;21004;-79
2021/12/29 09:20:23;;;;;;;224.43;35.80;;;;;;;;;;5057136;28;20521;-79
2021/12/29 09:22:50;;;;;;;93.17;23.23;;;;;;;;;;5055300;28;21282;-80
2021/12/29 09:25:16;;;;;;;98.07;22.10;;;;;;;;;;5053606;28;20451;-79
2021/12/29 09:27:47;;;;;;;212.33;30.70;;;;;;;;;;5052191;28;21063;-77
2021/12/29 09:30:13;;;;;;;161.87;26.30;;;;;;;;;;5055445;28;20487;-79
2021/12/29 09:32:39;;;;;;;274.17;38.80;;;;;;;;;;5052926;28;20482;-79
2021/12/29 09:35:06;;;;;;;200.50;32.50;;;;;;;;;;5055114;28;20498;-79
2021/12/29 09:37:32;;;;;;;100.77;22.30;;;;;;;;;;5053288;28;20584;-81
2021/12/29 09:39:59;;;;;;;72.57;18.63;;;;;;;;;;5056747;28;20525;-80
2021/12/29 09:42:25;;;;;;;65.27;18.20;;;;;;;;;;5052493;28;21007;-79
2021/12/29 09:44:53;;;;;;;121.60;26.80;;;;;;;;;;5053482;28;20456;-80
2021/12/29 09:47:20;;;;;;;137.27;24.57;;;;;;;;;;5056016;28;20533;-79
2021/12/29 09:49:46;;;;;;;109.00;21.63;;;;;;;;;;5055363;28;20467;-80
2021/12/29 09:52:12;;;;;;;97.67;20.27;;;;;;;;;;5055033;28;20486;-80
2021/12/29 09:54:38;;;;;;;53.43;18.10;;;;;;;;;;5057428;28;20451;-80
2021/12/29 09:57:05;;;;;;;61.60;17.77;;;;;;;;;;5054044;28;20506;-79
2021/12/29 09:59:31;;;;;;;74.60;20.43;;;;;;;;;;5053376;28;20459;-79
2021/12/29 10:01:59;;;;;;;135.30;27.63;;;;;;;;;;5053689;28;20476;-80
2021/12/29 10:04:26;;;;;;;79.03;20.97;;;;;;;;;;5056830;28;20490;-79
2021/12/29 10:06:52;;;;;;;70.53;20.27;;;;;;;;;;5055607;28;20831;-77
2021/12/29 10:09:19;;;;;;;165.43;30.83;;;;;;;;;;5054627;28;20866;-80
2021/12/29 10:11:46;;;;;;;64.03;22.50;;;;;;;;;;5056551;28;20520;-79
2021/12/29 10:14:13;;;;;;;141.10;26.20;;;;;;;;;;5057969;28;20443;-80
2021/12/29 10:16:40;;;;;;;107.93;25.23;;;;;;;;;;5058539;28;20512;-80
2021/12/29 10:19:08;;;;;;;76.70;21.20;;;;;;;;;;5056998;28;20831;-80
2021/12/29 10:21:36;;;;;;;83.83;22.27;;;;;;;;;;5056371;28;20498;-80
2021/12/29 10:24:02;;;;;;;155.10;32.20;;;;;;;;;;5055806;28;21022;-79
2021/12/29 10:26:30;;;;;;;112.43;22.77;;;;;;;;;;5060763;28;20813;-80
2021/12/29 10:29:00;;;;;;;75.10;19.80;;;;;;;;;;5060554;28;20447;-79
2021/12/29 10:31:27;;;;;;;80.97;20.60;;;;;;;;;;5061326;28;20478;-79
2021/12/29 10:33:54;;;;;;;91.43;21.87;;;;;;;;;;5060615;28;20865;-81
2021/12/29 10:36:23;;;;;;;97.07;24.83;;;;;;;;;;5059782;28;20472;-80
2021/12/29 10:38:51;;;;;;;82.77;22.40;;;;;;;;;;5060230;28;20435;-79
2021/12/29 10:41:18;;;;;;;122.30;28.90;;;;;;;;;;5058247;28;21049;-79
2021/12/29 10:43:51;;;;;;;98.07;26.87;;;;;;;;;;5059319;28;20914;-79
2021/12/29 10:46:18;;;;;;;101.70;25.07;;;;;;;;;;5057208;28;20529;-80
2021/12/29 10:48:46;;;;;;;164.60;29.53;;;;;;;;;;5059648;28;20451;-79
2021/12/29 10:51:13;;;;;;;157.67;57.30;;;;;;;;;;5057574;28;20467;-80
2021/12/29 10:53:40;;;;;;;130.37;38.47;;;;;;;;;;5060254;28;20833;-79
2021/12/29 10:56:07;;;;;;;95.70;32.30;;;;;;;;;;5059512;28;20490;-80
2021/12/29 10:58:35;;;;;;;72.73;27.13;;;;;;;;;;5053408;28;20837;-80
2021/12/29 11:01:05;;;;;;;135.03;30.13;;;;;;;;;;5057185;28;20542;-79
2021/12/29 11:03:32;;;;;;;148.47;32.53;;;;;;;;;;5058634;28;20475;-79
2021/12/29 11:05:59;;;;;;;89.70;42.63;;;;;;;;;;5054931;28;20516;-80
2021/12/29 11:08:26;;;;;;;95.63;27.20;;;;;;;;;;5056396;28;20460;-82
2021/12/29 11:10:55;;;;;;;140.87;44.37;;;;;;;;;;5057489;28;20482;-80
2021/12/29 11:13:25;;;;;;;133.63;32.77;;;;;;;;;;5061593;28;20439;-78
2021/12/29 11:15:52;;;;;;;166.13;35.37;;;;;;;;;;5060459;28;20440;-80
2021/12/29 11:18:18;;;;;;;101.37;29.90;;;;;;;;;;5062069;28;20463;-80
2021/12/29 11:20:44;;;;;;;92.87;31.93;;;;;;;;;;5059938;28;20483;-79
2021/12/29 11:23:12;;;;;;;122.27;33.57;;;;;;;;;;5060378;28;20881;-79
2021/12/29 11:25:39;;;;;;;93.23;31.53;;;;;;;;;;5060743;28;20491;-79
2021/12/29 11:28:07;;;;;;;97.90;31.87;;;;;;;;;;5060516;28;20472;-80
2021/12/29 11:30:34;;;;;;;87.77;30.63;;;;;;;;;;5060571;28;20475;-79
2021/12/29 11:33:05;;;;;;;83.53;30.30;;;;;;;;;;5058314;28;21015;-83
2021/12/29 11:35:31;;;;;;;88.73;33.27;;;;;;;;;;5057704;28;20454;-79
2021/12/29 11:38:00;;;;;;;92.60;36.40;;;;;;;;;;5057049;28;20888;-79
2021/12/29 11:40:27;;;;;;;92.30;31.40;;;;;;;;;;5060849;28;20602;-79
2021/12/29 11:42:54;;;;;;;85.17;31.73;;;;;;;;;;5058825;28;20466;-80
2021/12/29 11:45:22;;;;;;;96.00;34.67;;;;;;;;;;5055567;28;20467;-80
2021/12/29 11:47:49;;;;;;;88.47;32.20;;;;;;;;;;5056676;28;20911;-80
2021/12/29 11:50:18;;;;;;;129.80;48.13;;;;;;;;;;5058518;28;20498;-79
2021/12/29 11:52:55;;;;;;;86.97;30.37;;;;;;;;;;5057005;28;20468;-79
2021/12/29 11:55:24;;;;;;;89.90;33.53;;;;;;;;;;5059512;28;21034;-79
2021/12/29 11:57:50;;;;;;;78.20;33.20;;;;;;;;;;5056801;28;20587;-81
2021/12/29 12:00:18;;;;;;;73.90;32.60;;;;;;;;;;5058628;28;20472;-79
2021/12/29 12:02:45;;;;;;;91.80;32.13;;;;;;;;;;5058521;28;20499;-78
2021/12/29 12:05:13;;;;;;;87.80;37.67;;;;;;;;;;5058169;28;20475;-79
2021/12/29 12:07:39;;;;;;;77.40;29.77;;;;;;;;;;5057674;28;20540;-80
2021/12/29 12:10:11;;;;;;;91.40;31.23;;;;;;;;;;5060824;28;20468;-79
2021/12/29 12:12:39;;;;;;;70.87;28.83;;;;;;;;;;5059006;28;20475;-80
2021/12/29 12:15:07;;;;;;;69.47;30.83;;;;;;;;;;5060329;28;20518;-80
2021/12/29 12:17:33;;;;;;;79.10;30.50;;;;;;;;;;5059672;28;20479;-80
2021/12/29 12:20:02;;;;;;;80.37;29.17;;;;;;;;;;5059038;28;20480;-79
2021/12/29 12:22:28;;;;;;;65.60;30.00;;;;;;;;;;5056098;28;20815;-81
2021/12/29 12:25:00;;;;;;;108.97;31.63;;;;;;;;;;5059447;28;20549;-80
2021/12/29 12:27:27;;;;;;;71.93;28.50;;;;;;;;;;5057537;28;20479;-80
2021/12/29 12:30:01;;;;;;;92.20;28.13;;;;;;;;;;5058732;28;21013;-80
2021/12/29 12:32:27;;;;;;;88.77;31.13;;;;;;;;;;5059619;28;20533;-79
2021/12/29 12:34:58;;;;;;;109.43;37.40;;;;;;;;;;5057497;28;20456;-80
2021/12/29 12:37:30;;;;;;;110.00;40.87;;;;;;;;;;5058335;28;20481;-80
2021/12/29 12:39:58;;;;;;;104.33;38.10;;;;;;;;;;5052390;28;20520;-79
2021/12/29 12:42:25;;;;;;;182.97;40.93;;;;;;;;;;5049317;28;20553;-79
2021/12/29 12:44:51;;;;;;;262.43;43.43;;;;;;;;;;5057681;28;20917;-81
2021/12/29 12:47:17;;;;;;;240.03;38.77;;;;;;;;;;5055062;28;20476;-80
2021/12/29 12:49:46;;;;;;;141.60;34.93;;;;;;;;;;5060048;28;20484;-80
2021/12/29 12:52:13;;;;;;;247.97;43.00;;;;;;;;;;5058629;28;20475;-80
2021/12/29 12:54:45;;;;;;;310.87;46.10;;;;;;;;;;5060002;28;20988;-80
2021/12/29 12:57:12;;;;;;;218.03;39.97;;;;;;;;;;5058986;28;20529;-81
2021/12/29 12:59:39;;;;;;;265.23;38.47;;;;;;;;;;5061961;28;20481;-81
2021/12/29 13:02:15;;;;;;;439.73;57.73;;;;;;;;;;5053955;28;20508;-80
2021/12/29 13:04:43;;;;;;;333.60;46.50;;;;;;;;;;5059586;28;20491;-84
2021/12/29 13:07:09;;;;;;;142.23;30.20;;;;;;;;;;5060829;28;20510;-80
2021/12/29 13:09:46;;;;;;;472.47;58.13;;;;;;;;;;5059288;28;20464;-80
2021/12/29 13:12:13;;;;;;;630.33;67.83;;;;;;;;;;5055496;28;20473;-80
2021/12/29 13:14:40;;;;;;;94.20;29.20;;;;;;;;;;5057435;28;20458;-81
2021/12/29 13:17:06;;;;;;;416.03;54.20;;;;;;;;;;5054945;28;20870;-81
2021/12/29 13:19:32;;;;;;;86.53;26.80;;;;;;;;;;5060187;28;20463;-80
2021/12/29 13:21:59;;;;;;;371.00;42.50;;;;;;;;;;5058853;28;20471;-81
2021/12/29 13:24:25;;;;;;;518.97;60.23;;;;;;;;;;5057890;28;20538;-80
2021/12/29 13:26:55;;;;;;;270.43;38.50;;;;;;;;;;5060293;28;20475;-80
2021/12/29 13:29:23;;;;;;;440.10;53.30;;;;;;;;;;5059395;28;20452;-80
2021/12/29 13:31:51;;;;;;;264.10;35.20;;;;;;;;;;5056622;28;20526;-80
2021/12/29 13:34:17;;;;;;;229.97;34.80;;;;;;;;;;5056930;28;20506;-80
2021/12/29 13:36:45;;;;;;;432.03;51.97;;;;;;;;;;5055791;28;21035;-80
2021/12/29 13:39:12;;;;;;;255.50;36.07;;;;;;;;;;5057075;28;20462;-80
2021/12/29 13:41:38;;;;;;;273.90;42.33;;;;;;;;;;5046731;28;20564;-77
2021/12/29 13:44:07;;;;;;;357.23;44.23;;;;;;;;;;5053650;28;20499;-80
2021/12/29 13:46:34;;;;;;;112.53;25.07;;;;;;;;;;5054016;28;20571;-80
2021/12/29 13:49:01;;;;;;;289.53;38.80;;;;;;;;;;5053574;28;20550;-80
2021/12/29 13:51:29;;;;;;;295.20;39.30;;;;;;;;;;5055264;28;20479;-81
2021/12/29 13:53:56;;;;;;;113.80;25.60;;;;;;;;;;5053064;28;20451;-80
2021/12/29 13:56:24;;;;;;;148.83;30.17;;;;;;;;;;5056762;28;20490;-80
2021/12/29 13:58:58;;;;;;;126.40;28.07;;;;;;;;;;5055699;28;20467;-80
2021/12/29 14:01:26;;;;;;;132.23;29.33;;;;;;;;;;5057317;28;20887;-81
2021/12/29 14:03:52;;;;;;;168.13;30.90;;;;;;;;;;5059916;28;20890;-80
2021/12/29 14:06:19;;;;;;;305.27;39.17;;;;;;;;;;5060910;28;20501;-85
2021/12/29 14:08:45;;;;;;;162.77;31.10;;;;;;;;;;5061187;28;20448;-82
2021/12/29 14:11:12;;;;;;;276.73;39.00;;;;;;;;;;5060508;28;20944;-80
2021/12/29 14:13:44;;;;;;;135.87;29.93;;;;;;;;;;5062958;28;20494;-80
2021/12/29 14:16:11;;;;;;;126.07;26.60;;;;;;;;;;5063207;28;20532;-80
2021/12/29 14:18:46;;;;;;;149.60;31.10;;;;;;;;;;5060842;28;20479;-80